Time;durP1;ratioP1;P1;durP2;ratioP2;P2;SDS_P1;SDS_P2;PMS_P1;PMS_P2;Temp;Humidity;BMP_temperature;BMP_pressure;BME280_temperature;BME280_humidity;BME280_pressure;Samples;Min_cycle;Max_cycle;Signal;HPM_P1;HPM_P2
2021/07/21 00:00:27;;;;;;;12.47;11.27;;;14.20;80.30;;;;;;4986307;28;20470;-77
2021/07/21 00:02:55;;;;;;;12.50;11.23;;;14.10;80.60;;;;;;4980333;28;20444;-76
2021/07/21 00:05:23;;;;;;;12.33;11.13;;;14.10;81.70;;;;;;4981560;28;20479;-76
2021/07/21 00:07:51;;;;;;;13.93;11.00;;;14.00;81.50;;;;;;4989444;28;20461;-76
2021/07/21 00:10:20;;;;;;;15.10;11.30;;;14.00;81.60;;;;;;4987067;28;20458;-76
2021/07/21 00:15:34;;;;;;;16.00;11.67;;;14.00;82.10;;;;;;4982147;28;20624;-77
2021/07/21 00:18:02;;;;;;;12.27;11.07;;;13.90;82.00;;;;;;4987268;28;20928;-75
2021/07/21 00:20:31;;;;;;;14.13;11.60;;;13.90;82.20;;;;;;4984130;28;20446;-76
2021/07/21 00:23:00;;;;;;;14.20;11.37;;;13.80;82.50;;;;;;4987576;28;20510;-76
2021/07/21 00:25:27;;;;;;;12.10;10.90;;;13.90;82.50;;;;;;4984274;28;20466;-76
2021/07/21 00:27:54;;;;;;;13.33;10.37;;;13.80;82.90;;;;;;4987241;28;20511;-76
2021/07/21 00:30:21;;;;;;;13.50;10.90;;;13.70;83.10;;;;;;4983281;28;20483;-76
2021/07/21 00:32:48;;;;;;;16.77;11.47;;;13.70;84.40;;;;;;4988339;28;20460;-76
2021/07/21 00:35:17;;;;;;;13.23;10.90;;;13.60;84.90;;;;;;4987597;28;20464;-76
2021/07/21 00:37:44;;;;;;;12.63;11.30;;;13.50;85.20;;;;;;4988769;28;20447;-76
2021/07/21 00:40:15;;;;;;;14.03;11.30;;;13.60;85.40;;;;;;4992204;28;20808;-76
2021/07/21 00:42:42;;;;;;;13.17;11.77;;;13.60;84.90;;;;;;4989173;28;20446;-76
2021/07/21 00:45:10;;;;;;;14.77;13.20;;;13.50;85.20;;;;;;4988933;28;20457;-76
2021/07/21 00:47:37;;;;;;;15.80;11.77;;;13.50;85.90;;;;;;4983674;28;20484;-76
2021/07/21 00:50:04;;;;;;;13.53;11.93;;;13.50;86.40;;;;;;4984790;28;20465;-76
2021/07/21 00:52:33;;;;;;;13.37;12.07;;;13.40;87.00;;;;;;4981050;28;20469;-76
2021/07/21 00:55:00;;;;;;;15.37;12.00;;;13.40;87.70;;;;;;4986242;28;20553;-77
2021/07/21 00:57:28;;;;;;;13.40;11.90;;;13.40;88.30;;;;;;4997592;28;20478;-77
2021/07/21 00:59:56;;;;;;;14.30;11.87;;;13.50;87.90;;;;;;4986028;28;20452;-76
2021/07/21 01:02:23;;;;;;;21.33;14.07;;;13.50;88.50;;;;;;4987229;28;21013;-77
2021/07/21 01:04:50;;;;;;;14.10;12.63;;;13.50;88.10;;;;;;4990277;28;20454;-76
2021/07/21 01:07:17;;;;;;;13.23;11.47;;;13.50;88.30;;;;;;4984986;28;20853;-77
2021/07/21 01:09:46;;;;;;;14.00;12.60;;;13.50;88.40;;;;;;4988373;28;20472;-77
2021/07/21 01:12:21;;;;;;;13.33;11.07;;;13.40;89.20;;;;;;4987980;28;20456;-77
2021/07/21 01:15:00;;;;;;;15.53;12.97;;;13.40;90.10;;;;;;4987730;28;20965;-76
2021/07/21 01:17:32;;;;;;;13.90;12.10;;;13.40;90.30;;;;;;4994630;28;20461;-77
2021/07/21 01:20:19;;;;;;;14.60;12.47;;;13.40;90.00;;;;;;4987134;28;20457;-76
2021/07/21 01:22:48;;;;;;;15.67;13.20;;;13.30;90.40;;;;;;4991632;28;20461;-77
2021/07/21 01:25:16;;;;;;;15.73;14.03;;;13.30;91.00;;;;;;5004053;28;20470;-76
2021/07/21 01:27:48;;;;;;;13.73;12.40;;;13.20;91.50;;;;;;5003710;28;20576;-77
2021/07/21 01:30:17;;;;;;;14.97;12.90;;;13.20;91.60;;;;;;4993896;28;20525;-77
2021/07/21 01:32:47;;;;;;;14.47;12.97;;;13.10;91.90;;;;;;4986316;28;20823;-76
2021/07/21 01:35:20;;;;;;;15.53;13.80;;;13.00;92.00;;;;;;4986137;28;20462;-76
2021/07/21 01:37:54;;;;;;;15.30;13.67;;;13.00;92.10;;;;;;4984316;28;20458;-76
2021/07/21 01:40:26;;;;;;;17.80;14.70;;;13.10;91.90;;;;;;4989577;28;20551;-76
2021/07/21 01:42:59;;;;;;;17.07;14.37;;;13.10;91.60;;;;;;4988927;28;20448;-76
2021/07/21 01:45:28;;;;;;;16.00;13.77;;;13.10;91.30;;;;;;4985915;28;20508;-76
2021/07/21 01:47:57;;;;;;;16.47;12.87;;;13.10;91.10;;;;;;4989099;28;20480;-75
2021/07/21 01:50:25;;;;;;;15.53;13.70;;;12.90;91.60;;;;;;4987954;28;20460;-76
2021/07/21 01:52:53;;;;;;;14.70;13.30;;;12.80;92.50;;;;;;4991305;28;20446;-77
2021/07/21 01:55:22;;;;;;;17.97;13.53;;;12.80;93.00;;;;;;4983754;28;20467;-76
2021/07/21 01:57:50;;;;;;;16.73;14.67;;;12.70;93.50;;;;;;4990214;28;20452;-77
2021/07/21 02:00:19;;;;;;;17.20;14.00;;;12.60;93.70;;;;;;4992672;28;20466;-76
2021/07/21 02:02:50;;;;;;;16.17;14.47;;;12.60;94.50;;;;;;4994921;28;20448;-76
2021/07/21 02:05:18;;;;;;;16.40;13.30;;;12.60;94.90;;;;;;4990006;28;20475;-76
2021/07/21 02:07:46;;;;;;;15.53;13.90;;;12.50;94.90;;;;;;4986782;28;20474;-77
2021/07/21 02:10:16;;;;;;;16.10;14.50;;;12.40;95.10;;;;;;4983851;28;20485;-77
2021/07/21 02:12:44;;;;;;;15.67;14.07;;;12.30;96.50;;;;;;4991567;28;20541;-76
2021/07/21 02:15:12;;;;;;;16.57;14.97;;;12.30;97.30;;;;;;4977001;28;20450;-77
2021/07/21 02:17:41;;;;;;;19.07;14.83;;;12.40;97.30;;;;;;4987768;28;20459;-77
2021/07/21 02:20:10;;;;;;;17.80;15.90;;;12.40;97.80;;;;;;4994080;28;20534;-77
2021/07/21 02:22:37;;;;;;;17.47;15.67;;;12.40;97.20;;;;;;4985525;28;20451;-77
2021/07/21 02:25:05;;;;;;;18.90;14.73;;;12.40;97.00;;;;;;4989288;28;20479;-77
2021/07/21 02:27:32;;;;;;;21.37;15.97;;;12.40;97.60;;;;;;4988041;28;20477;-76
2021/07/21 02:29:59;;;;;;;17.63;15.23;;;12.40;97.50;;;;;;4985746;28;21011;-76
2021/07/21 02:32:30;;;;;;;24.00;16.23;;;12.40;97.70;;;;;;4987608;28;20465;-77
2021/07/21 02:34:58;;;;;;;16.50;14.63;;;12.40;97.50;;;;;;4988372;28;20451;-76
2021/07/21 02:37:26;;;;;;;16.10;14.50;;;12.30;97.30;;;;;;4983252;28;21011;-77
2021/07/21 02:39:54;;;;;;;17.83;15.93;;;12.30;97.60;;;;;;4987727;28;20501;-76
2021/07/21 02:42:21;;;;;;;19.70;16.03;;;12.20;98.40;;;;;;4981177;28;20465;-76
2021/07/21 02:44:51;;;;;;;17.77;15.97;;;12.20;98.30;;;;;;4980521;28;20837;-77
2021/07/21 02:47:19;;;;;;;17.33;15.43;;;12.20;97.90;;;;;;4985718;28;20913;-75
2021/07/21 02:49:47;;;;;;;19.90;16.60;;;12.20;98.00;;;;;;4985021;28;20440;-75
2021/07/21 02:52:22;;;;;;;18.27;15.77;;;12.20;97.60;;;;;;4986178;28;20445;-76
2021/07/21 02:54:58;;;;;;;17.53;15.50;;;12.30;97.20;;;;;;4986546;28;20793;-75
2021/07/21 02:57:32;;;;;;;18.20;15.70;;;12.10;97.20;;;;;;4987707;28;20491;-76
2021/07/21 03:00:05;;;;;;;21.47;16.77;;;12.10;97.40;;;;;;4988064;28;20447;-77
2021/07/21 03:02:35;;;;;;;16.20;14.53;;;12.00;98.70;;;;;;4985458;28;20445;-76
2021/07/21 03:05:03;;;;;;;19.37;17.37;;;11.90;99.90;;;;;;4985839;28;20563;-76
2021/07/21 03:07:32;;;;;;;18.27;15.07;;;11.90;99.90;;;;;;4987207;28;20464;-77
2021/07/21 03:10:00;;;;;;;20.30;16.20;;;11.90;99.90;;;;;;4989638;28;20453;-76
2021/07/21 03:12:29;;;;;;;20.03;16.37;;;11.90;99.90;;;;;;4980954;28;20826;-76
2021/07/21 03:14:59;;;;;;;20.33;15.10;;;11.90;99.90;;;;;;4989551;28;20977;-76
2021/07/21 03:17:27;;;;;;;18.10;16.23;;;11.90;99.90;;;;;;4988027;28;20989;-76
2021/07/21 03:19:57;;;;;;;19.80;17.20;;;11.80;99.90;;;;;;4986338;28;20464;-77
2021/07/21 03:22:27;;;;;;;18.40;16.07;;;11.80;99.90;;;;;;4987768;28;20467;-75
2021/07/21 03:24:56;;;;;;;19.20;16.07;;;11.80;99.90;;;;;;4988302;28;20455;-76
2021/07/21 03:27:25;;;;;;;18.97;15.57;;;11.80;99.90;;;;;;4988156;28;20955;-77
2021/07/21 03:29:54;;;;;;;22.73;17.03;;;11.80;99.90;;;;;;4982196;28;20838;-76
2021/07/21 03:32:24;;;;;;;17.43;15.53;;;11.80;99.90;;;;;;4985909;28;20522;-76
2021/07/21 03:34:52;;;;;;;22.90;14.80;;;11.70;99.90;;;;;;4985633;28;20459;-77
2021/07/21 03:37:20;;;;;;;19.73;15.63;;;11.60;99.90;;;;;;4981255;28;20444;-77
2021/07/21 03:39:54;;;;;;;18.80;15.47;;;11.60;99.90;;;;;;4985713;28;20473;-76
2021/07/21 03:42:24;;;;;;;17.87;15.40;;;11.60;99.90;;;;;;4987748;28;20459;-75
2021/07/21 03:44:53;;;;;;;19.47;14.53;;;11.60;99.90;;;;;;4987059;28;20506;-75
2021/07/21 03:47:20;;;;;;;17.50;15.50;;;11.60;99.90;;;;;;4986618;28;20493;-75
2021/07/21 03:49:48;;;;;;;18.50;15.50;;;11.50;99.90;;;;;;4984603;28;20461;-76
2021/07/21 03:52:15;;;;;;;16.93;15.13;;;11.50;99.90;;;;;;4980788;28;20452;-76
2021/07/21 03:54:42;;;;;;;17.30;15.40;;;11.60;99.90;;;;;;4978680;28;20435;-76
2021/07/21 03:57:10;;;;;;;17.00;15.23;;;11.60;99.90;;;;;;4988028;28;20474;-77
2021/07/21 03:59:38;;;;;;;16.73;15.00;;;11.70;99.90;;;;;;4982158;28;20803;-76
2021/07/21 04:02:07;;;;;;;19.47;16.17;;;11.70;99.90;;;;;;4977804;28;20940;-75
2021/07/21 04:04:34;;;;;;;21.63;15.63;;;11.80;99.90;;;;;;4984272;28;20460;-76
2021/07/21 04:07:02;;;;;;;16.53;14.53;;;11.80;99.90;;;;;;4983513;28;20445;-76
2021/07/21 04:09:32;;;;;;;17.87;15.00;;;11.90;99.90;;;;;;4980526;28;20476;-76
2021/07/21 04:12:00;;;;;;;18.73;15.70;;;11.90;99.90;;;;;;4984474;28;20585;-76
2021/07/21 04:14:27;;;;;;;16.73;14.43;;;12.20;98.90;;;;;;4991818;28;20463;-77
2021/07/21 04:16:56;;;;;;;14.83;13.20;;;12.60;97.20;;;;;;4986855;28;20542;-77
2021/07/21 04:19:24;;;;;;;15.50;12.10;;;13.10;93.10;;;;;;4984915;28;20456;-77
2021/07/21 04:21:52;;;;;;;13.80;12.40;;;13.60;90.80;;;;;;4984089;28;20467;-77
2021/07/21 04:24:21;;;;;;;17.10;11.87;;;14.20;87.70;;;;;;4983520;28;20960;-75
2021/07/21 04:26:50;;;;;;;12.37;11.00;;;14.50;85.40;;;;;;4986634;28;20454;-76
2021/07/21 04:29:18;;;;;;;11.87;10.70;;;14.90;82.60;;;;;;4981912;28;20474;-76
2021/07/21 04:31:47;;;;;;;12.23;11.07;;;15.20;80.80;;;;;;4984059;28;20464;-76
2021/07/21 04:34:17;;;;;;;18.93;11.07;;;15.50;78.70;;;;;;4984904;28;20447;-76
2021/07/21 04:36:45;;;;;;;12.87;10.33;;;15.60;77.70;;;;;;4983936;28;20444;-77
2021/07/21 04:39:14;;;;;;;12.03;10.83;;;15.90;76.70;;;;;;4986786;28;20447;-76
2021/07/21 04:41:43;;;;;;;12.03;10.83;;;16.10;75.20;;;;;;4981728;28;20451;-76
2021/07/21 04:44:12;;;;;;;10.73;9.63;;;16.70;72.90;;;;;;4983913;28;20460;-76
2021/07/21 04:46:39;;;;;;;13.30;11.00;;;16.70;71.80;;;;;;4983354;28;20459;-76
2021/07/21 04:49:09;;;;;;;11.37;10.17;;;16.70;71.80;;;;;;4983332;28;21015;-76
2021/07/21 04:51:37;;;;;;;13.90;10.20;;;16.80;71.20;;;;;;4969461;28;20438;-76
2021/07/21 04:54:06;;;;;;;11.13;10.03;;;16.90;70.40;;;;;;4984413;28;20538;-75
2021/07/21 04:56:33;;;;;;;12.77;11.10;;;17.10;70.40;;;;;;4978649;28;20491;-76
2021/07/21 04:59:00;;;;;;;12.10;10.53;;;17.30;69.50;;;;;;4984155;28;20467;-77
2021/07/21 05:01:27;;;;;;;10.57;9.57;;;17.60;69.50;;;;;;4973860;28;20892;-77
2021/07/21 05:03:54;;;;;;;12.00;10.80;;;17.90;69.60;;;;;;4981995;28;20459;-76
2021/07/21 05:06:22;;;;;;;11.97;10.40;;;17.90;66.60;;;;;;4980701;28;20456;-76
2021/07/21 05:08:50;;;;;;;12.17;9.47;;;18.10;66.90;;;;;;4982526;28;20571;-76
2021/07/21 05:11:21;;;;;;;11.27;10.17;;;18.30;65.80;;;;;;4982602;28;20448;-76
2021/07/21 05:13:48;;;;;;;11.17;10.17;;;18.30;65.50;;;;;;4983633;28;20445;-76
2021/07/21 05:16:14;;;;;;;12.47;9.97;;;18.50;65.60;;;;;;4989188;28;20459;-77
2021/07/21 05:18:42;;;;;;;14.10;9.50;;;18.70;65.20;;;;;;4987846;28;20448;-77
2021/07/21 05:21:09;;;;;;;12.80;10.70;;;18.90;64.50;;;;;;4982025;28;20453;-77
2021/07/21 05:23:36;;;;;;;13.40;10.70;;;18.90;63.60;;;;;;4988642;28;20478;-77
2021/07/21 05:26:07;;;;;;;10.87;9.87;;;18.90;63.60;;;;;;4987698;28;20902;-77
2021/07/21 05:28:34;;;;;;;11.37;10.37;;;19.00;63.30;;;;;;4986418;28;20469;-77
2021/07/21 05:31:01;;;;;;;12.03;10.83;;;18.90;62.80;;;;;;4985521;28;20867;-76
2021/07/21 05:33:28;;;;;;;12.33;11.13;;;18.90;62.80;;;;;;4986227;28;20448;-75
2021/07/21 05:35:55;;;;;;;12.20;11.00;;;19.30;62.60;;;;;;4985711;28;20468;-76
2021/07/21 05:38:22;;;;;;;15.23;10.43;;;18.70;62.40;;;;;;4986902;28;20523;-76
2021/07/21 05:40:49;;;;;;;12.27;10.30;;;18.60;63.40;;;;;;4988359;28;20452;-76
2021/07/21 05:43:17;;;;;;;12.77;9.80;;;19.10;62.90;;;;;;4988446;28;20819;-77
2021/07/21 05:45:44;;;;;;;12.10;10.93;;;18.90;63.40;;;;;;4990233;28;20449;-76
2021/07/21 05:48:11;;;;;;;12.17;11.00;;;19.60;62.00;;;;;;4994620;28;20490;-76
2021/07/21 05:50:38;;;;;;;11.20;10.20;;;19.00;61.70;;;;;;4992593;28;20467;-76
2021/07/21 05:53:05;;;;;;;19.63;10.60;;;19.20;61.50;;;;;;4998057;28;20449;-77
2021/07/21 05:55:32;;;;;;;11.50;10.40;;;19.20;61.90;;;;;;4988946;28;20552;-76
2021/07/21 05:57:59;;;;;;;11.23;10.23;;;19.40;62.10;;;;;;4988431;28;20457;-78
2021/07/21 06:00:27;;;;;;;12.40;11.10;;;19.40;61.40;;;;;;4986540;28;20461;-74
2021/07/21 06:02:54;;;;;;;13.60;11.43;;;19.30;61.30;;;;;;4988086;28;20470;-75
2021/07/21 06:05:20;;;;;;;11.63;9.83;;;19.50;61.60;;;;;;4985052;28;20452;-74
2021/07/21 06:07:47;;;;;;;11.13;10.13;;;19.00;61.60;;;;;;4987578;28;20444;-75
2021/07/21 06:10:14;;;;;;;11.70;10.43;;;18.80;62.00;;;;;;4978493;28;20481;-78
2021/07/21 06:12:41;;;;;;;12.87;10.40;;;18.60;62.10;;;;;;4985278;28;20991;-77
2021/07/21 06:15:08;;;;;;;12.77;11.20;;;18.90;62.20;;;;;;4983540;28;20449;-77
2021/07/21 06:17:37;;;;;;;10.70;9.63;;;18.90;62.10;;;;;;4992435;28;20465;-74
2021/07/21 06:20:07;;;;;;;12.33;10.60;;;18.60;62.10;;;;;;4983874;28;20437;-77
2021/07/21 06:22:38;;;;;;;10.57;9.60;;;18.70;62.30;;;;;;4989891;28;20503;-78
2021/07/21 06:25:07;;;;;;;10.57;9.57;;;18.80;62.10;;;;;;4988598;28;20543;-77
2021/07/21 06:27:34;;;;;;;13.60;10.73;;;19.00;62.40;;;;;;4989409;28;20451;-78
2021/07/21 06:30:06;;;;;;;12.50;11.30;;;18.40;62.00;;;;;;4993678;28;20526;-78
2021/07/21 06:32:34;;;;;;;13.47;10.90;;;17.60;62.40;;;;;;4988534;28;20947;-78
2021/07/21 06:35:02;;;;;;;12.57;11.27;;;17.00;63.90;;;;;;4989458;28;20953;-78
2021/07/21 06:37:29;;;;;;;12.20;11.00;;;17.00;64.20;;;;;;4988693;28;20830;-78
2021/07/21 06:39:56;;;;;;;11.40;10.37;;;17.00;64.60;;;;;;4982529;28;20482;-77
2021/07/21 06:42:23;;;;;;;12.37;10.73;;;17.20;64.70;;;;;;4986372;28;20975;-79
2021/07/21 06:44:50;;;;;;;14.80;11.73;;;17.20;64.20;;;;;;4993441;28;20855;-77
2021/07/21 06:47:17;;;;;;;12.10;11.00;;;17.20;64.70;;;;;;4988780;28;20459;-77
2021/07/21 06:49:44;;;;;;;11.53;10.37;;;17.40;64.70;;;;;;4984316;28;20471;-78
2021/07/21 06:52:12;;;;;;;11.60;9.93;;;17.60;64.30;;;;;;4995064;28;20462;-79
2021/07/21 06:54:39;;;;;;;13.13;11.83;;;17.70;64.00;;;;;;4997112;28;20523;-79
2021/07/21 06:57:06;;;;;;;12.57;11.33;;;17.60;63.60;;;;;;4994476;28;20470;-78
2021/07/21 06:59:33;;;;;;;12.17;11.07;;;17.80;63.90;;;;;;4985268;28;20564;-77
2021/07/21 07:02:01;;;;;;;12.47;11.27;;;17.90;63.30;;;;;;4985769;28;20461;-77
2021/07/21 07:04:27;;;;;;;12.47;11.27;;;18.00;63.30;;;;;;4981687;28;20456;-77
2021/07/21 07:06:54;;;;;;;16.47;11.60;;;18.20;63.10;;;;;;4984080;28;20570;-77
2021/07/21 07:09:22;;;;;;;12.23;10.97;;;17.90;62.50;;;;;;4981239;28;20469;-75
2021/07/21 07:11:50;;;;;;;12.10;10.90;;;17.90;63.30;;;;;;4980864;28;20555;-77
2021/07/21 07:14:17;;;;;;;12.20;10.90;;;18.30;63.40;;;;;;4984057;28;20533;-76
2021/07/21 07:16:43;;;;;;;11.80;10.57;;;18.30;63.00;;;;;;4983707;28;20451;-76
2021/07/21 07:19:10;;;;;;;10.60;9.60;;;18.30;62.00;;;;;;4983272;28;20483;-76
2021/07/21 07:21:37;;;;;;;11.67;10.47;;;18.40;62.70;;;;;;4985041;28;20462;-78
2021/07/21 07:24:05;;;;;;;11.82;10.63;;;18.60;62.10;;;;;;4980610;28;20464;-76
2021/07/21 07:26:34;;;;;;;12.37;10.70;;;18.60;62.10;;;;;;4983849;28;20276;-76
2021/07/21 07:29:01;;;;;;;10.20;9.17;;;18.60;61.70;;;;;;4986994;28;20999;-75
2021/07/21 07:31:28;;;;;;;12.47;10.90;;;18.90;61.70;;;;;;4984451;28;20459;-77
2021/07/21 07:33:55;;;;;;;11.50;10.40;;;18.80;61.60;;;;;;4986708;28;20441;-77
2021/07/21 07:36:23;;;;;;;13.87;10.50;;;19.10;61.90;;;;;;4985014;28;20998;-77
2021/07/21 07:38:50;;;;;;;14.20;9.87;;;19.10;61.20;;;;;;4984894;28;20538;-76
2021/07/21 07:41:20;;;;;;;11.40;10.30;;;19.20;60.70;;;;;;4987132;28;20509;-76
2021/07/21 07:43:49;;;;;;;11.50;10.40;;;19.20;60.20;;;;;;4983227;28;20527;-77
2021/07/21 07:46:15;;;;;;;10.90;9.80;;;19.10;60.50;;;;;;4983242;28;20467;-77
2021/07/21 07:48:42;;;;;;;15.73;10.77;;;19.30;60.60;;;;;;4987087;28;20478;-77
2021/07/21 07:51:09;;;;;;;11.70;10.40;;;19.50;60.20;;;;;;4977157;28;20511;-76
2021/07/21 07:53:36;;;;;;;13.07;10.00;;;19.20;59.60;;;;;;4987848;28;20459;-77
2021/07/21 07:56:03;;;;;;;10.03;9.03;;;19.40;59.80;;;;;;4979104;28;21032;-77
2021/07/21 07:58:30;;;;;;;11.30;9.60;;;19.70;60.10;;;;;;4989500;28;20537;-77
2021/07/21 08:00:58;;;;;;;10.63;9.53;;;19.80;59.30;;;;;;4985946;28;21032;-77
2021/07/21 08:03:24;;;;;;;11.23;9.80;;;19.90;58.90;;;;;;4985165;28;21173;-76
2021/07/21 08:05:54;;;;;;;11.63;10.53;;;19.80;59.00;;;;;;4982326;28;20536;-76
2021/07/21 08:08:20;;;;;;;11.53;10.43;;;19.90;58.80;;;;;;4985815;28;20444;-76
2021/07/21 08:10:48;;;;;;;10.80;9.70;;;20.00;58.60;;;;;;4982397;28;21206;-75
2021/07/21 08:13:15;;;;;;;10.83;9.83;;;20.20;58.80;;;;;;4982914;28;20627;-74
2021/07/21 08:15:42;;;;;;;10.70;9.67;;;20.60;58.60;;;;;;4978632;28;20456;-77
2021/07/21 08:18:12;;;;;;;10.40;9.33;;;20.50;58.60;;;;;;4986769;28;20457;-76
2021/07/21 08:20:39;;;;;;;10.77;9.70;;;20.30;57.90;;;;;;4993367;28;20514;-77
2021/07/21 08:23:06;;;;;;;11.80;10.60;;;20.30;58.50;;;;;;4986684;28;20474;-76
2021/07/21 08:25:33;;;;;;;10.97;9.87;;;20.40;58.50;;;;;;4987046;28;20456;-75
2021/07/21 08:28:01;;;;;;;11.53;9.73;;;20.50;57.70;;;;;;4986657;28;20445;-77
2021/07/21 08:30:29;;;;;;;11.10;10.00;;;20.50;57.70;;;;;;4988018;28;20568;-77
2021/07/21 08:32:58;;;;;;;10.60;9.60;;;20.60;57.80;;;;;;4988960;28;21093;-77
2021/07/21 08:35:29;;;;;;;11.03;9.93;;;20.70;57.00;;;;;;4985107;28;20444;-77
2021/07/21 08:37:55;;;;;;;11.40;9.70;;;20.70;57.40;;;;;;4983692;28;20499;-77
2021/07/21 08:40:24;;;;;;;10.57;9.13;;;20.80;57.60;;;;;;4988209;28;20544;-78
2021/07/21 08:42:52;;;;;;;11.83;10.67;;;20.70;57.80;;;;;;4981846;28;20437;-78
2021/07/21 08:45:19;;;;;;;10.80;9.70;;;20.60;57.10;;;;;;4978298;28;21090;-77
2021/07/21 08:47:46;;;;;;;12.67;9.63;;;20.80;57.20;;;;;;4983522;28;20444;-77
2021/07/21 08:50:14;;;;;;;11.73;10.53;;;20.90;56.90;;;;;;4986158;28;20476;-77
2021/07/21 08:52:43;;;;;;;11.57;10.37;;;20.90;57.40;;;;;;4992135;28;21035;-77
2021/07/21 08:55:12;;;;;;;11.87;10.63;;;21.00;57.50;;;;;;4983505;28;20530;-75
2021/07/21 08:57:39;;;;;;;10.27;9.37;;;21.00;57.60;;;;;;4985498;28;20568;-76
2021/07/21 09:00:08;;;;;;;12.47;10.37;;;21.20;57.90;;;;;;4986282;28;20536;-76
2021/07/21 09:02:37;;;;;;;10.70;9.60;;;21.20;57.30;;;;;;4985028;28;20452;-76
2021/07/21 09:05:04;;;;;;;11.47;10.47;;;21.20;57.00;;;;;;4985638;28;20472;-75
2021/07/21 09:07:31;;;;;;;10.20;9.20;;;21.10;57.30;;;;;;4988517;28;20479;-76
2021/07/21 09:09:59;;;;;;;11.83;10.27;;;21.30;57.50;;;;;;4977589;28;20492;-77
2021/07/21 09:12:26;;;;;;;13.73;10.17;;;21.40;57.30;;;;;;4987447;28;20492;-77
2021/07/21 09:14:53;;;;;;;11.10;9.43;;;21.50;57.40;;;;;;4980152;28;21229;-76
2021/07/21 09:17:22;;;;;;;10.33;9.40;;;21.60;57.60;;;;;;4995537;28;20448;-76
2021/07/21 09:19:51;;;;;;;12.13;10.73;;;21.60;56.90;;;;;;4979929;28;20441;-77
2021/07/21 09:22:19;;;;;;;11.57;10.43;;;21.60;56.60;;;;;;4987770;28;20462;-77
2021/07/21 09:25:07;;;;;;;10.87;9.73;;;21.70;56.40;;;;;;4987254;28;20459;-77
2021/07/21 09:27:35;;;;;;;10.37;9.47;;;21.60;56.10;;;;;;4973286;28;20445;-76
2021/07/21 09:30:02;;;;;;;10.87;9.87;;;21.60;55.80;;;;;;4984684;28;20858;-77
2021/07/21 09:32:29;;;;;;;11.13;9.90;;;21.80;55.50;;;;;;4986056;28;20452;-77
2021/07/21 09:34:55;;;;;;;9.40;8.47;;;22.00;54.80;;;;;;4982623;28;20453;-77
2021/07/21 09:37:23;;;;;;;12.13;8.93;;;22.00;54.80;;;;;;4991064;28;20448;-78
2021/07/21 09:39:50;;;;;;;10.10;9.10;;;22.10;54.80;;;;;;4987400;28;20463;-77
2021/07/21 09:42:27;;;;;;;9.33;8.40;;;22.10;54.50;;;;;;4988306;28;20452;-77
2021/07/21 09:44:55;;;;;;;9.90;8.93;;;21.80;53.60;;;;;;4983723;28;20587;-77
2021/07/21 09:47:24;;;;;;;8.77;7.87;;;21.80;54.10;;;;;;4987665;28;20938;-76
2021/07/21 09:50:10;;;;;;;9.23;7.90;;;22.10;54.60;;;;;;4978426;28;20475;-76
2021/07/21 09:52:46;;;;;;;9.67;8.77;;;22.20;54.40;;;;;;4980845;28;21040;-78
2021/07/21 09:55:15;;;;;;;8.73;8.03;;;22.10;55.00;;;;;;4987026;28;20444;-77
2021/07/21 09:57:43;;;;;;;10.37;8.20;;;22.30;54.10;;;;;;4980015;28;20467;-77
2021/07/21 10:00:23;;;;;;;9.40;8.50;;;22.40;53.70;;;;;;4988223;28;20448;-78
2021/07/21 10:02:50;;;;;;;8.90;8.10;;;22.80;53.60;;;;;;4981184;28;20456;-77
2021/07/21 10:05:18;;;;;;;8.70;7.97;;;22.90;53.30;;;;;;4984781;28;20209;-76
2021/07/21 10:07:49;;;;;;;9.20;8.40;;;22.90;53.40;;;;;;4983332;28;20457;-74
2021/07/21 10:10:18;;;;;;;9.73;8.10;;;22.80;53.30;;;;;;4978938;28;20216;-75
2021/07/21 10:12:57;;;;;;;10.97;9.07;;;22.70;53.80;;;;;;4975395;28;21592;-75
2021/07/21 10:15:25;;;;;;;10.93;8.70;;;22.50;53.60;;;;;;4977736;28;20455;-76
2021/07/21 10:18:05;;;;;;;9.43;8.50;;;22.20;53.40;;;;;;4982323;28;20464;-74
2021/07/21 10:20:32;;;;;;;9.27;8.47;;;22.10;53.30;;;;;;4981046;28;20459;-74
2021/07/21 10:22:59;;;;;;;9.80;8.90;;;22.00;53.20;;;;;;4989134;28;20457;-76
2021/07/21 10:25:26;;;;;;;11.63;8.97;;;22.20;53.50;;;;;;4985999;28;20454;-77
2021/07/21 10:27:57;;;;;;;9.23;7.80;;;22.30;53.60;;;;;;4982877;28;20465;-76
2021/07/21 10:30:26;;;;;;;11.17;9.10;;;22.60;53.30;;;;;;4978971;28;20488;-75
2021/07/21 10:32:55;;;;;;;9.40;8.50;;;22.50;52.90;;;;;;4983439;28;20559;-75
2021/07/21 10:35:23;;;;;;;9.60;8.60;;;22.70;53.10;;;;;;4984919;28;20447;-76
2021/07/21 10:37:52;;;;;;;9.63;8.83;;;22.90;53.20;;;;;;4985282;28;20453;-75
2021/07/21 10:40:19;;;;;;;9.10;8.20;;;23.10;53.30;;;;;;4982510;28;20832;-75
2021/07/21 10:42:47;;;;;;;10.43;8.80;;;23.40;52.90;;;;;;4978311;28;20504;-75
2021/07/21 10:45:15;;;;;;;9.53;8.63;;;23.30;52.00;;;;;;4973088;28;20441;-76
2021/07/21 10:47:47;;;;;;;9.10;8.20;;;23.30;52.30;;;;;;4987407;28;21002;-77
2021/07/21 10:50:37;;;;;;;9.23;8.33;;;23.40;52.30;;;;;;4979046;28;20804;-75
2021/07/21 10:53:30;;;;;;;10.20;8.50;;;23.40;52.80;;;;;;4983968;28;20453;-76
2021/07/21 10:59:15;;;;;;;9.23;8.40;;;23.30;52.10;;;;;;4978805;28;20471;-75
2021/07/21 11:01:42;;;;;;;8.40;7.63;;;23.20;51.90;;;;;;4983237;28;20467;-76
2021/07/21 11:04:11;;;;;;;9.90;9.00;;;23.20;51.50;;;;;;4985209;28;20551;-75
2021/07/21 11:06:39;;;;;;;11.63;8.60;;;23.10;51.60;;;;;;4978631;28;20451;-77
2021/07/21 11:09:21;;;;;;;9.57;8.77;;;23.20;52.10;;;;;;4983377;28;20448;-77
2021/07/21 11:11:51;;;;;;;9.03;8.23;;;23.30;51.60;;;;;;4982475;28;20475;-75
2021/07/21 11:14:19;;;;;;;8.20;7.40;;;23.40;52.00;;;;;;4986603;28;20444;-75
2021/07/21 11:16:49;;;;;;;9.57;8.10;;;23.20;52.00;;;;;;4982386;28;20532;-76
2021/07/21 11:19:29;;;;;;;8.77;7.90;;;23.00;52.40;;;;;;4986357;28;20501;-75
2021/07/21 11:21:57;;;;;;;10.10;8.07;;;23.00;51.80;;;;;;4978920;28;20455;-76
2021/07/21 11:24:24;;;;;;;9.73;8.27;;;22.80;51.30;;;;;;4988909;28;20449;-79
2021/07/21 11:26:51;;;;;;;10.40;8.17;;;23.00;52.10;;;;;;5000902;28;20436;-79
2021/07/21 11:29:47;;;;;;;8.70;7.90;;;23.30;51.80;;;;;;4986654;28;20475;-77
2021/07/21 11:32:26;;;;;;;12.60;8.20;;;23.40;51.90;;;;;;4983311;28;20526;-76
2021/07/21 11:34:54;;;;;;;14.07;8.83;;;23.60;51.70;;;;;;4990979;28;20555;-76
2021/07/21 11:37:29;;;;;;;8.27;7.47;;;23.50;51.20;;;;;;4990414;28;20444;-76
2021/07/21 11:39:57;;;;;;;10.57;8.10;;;23.80;51.10;;;;;;4992152;28;20746;-79
2021/07/21 11:42:34;;;;;;;8.70;7.90;;;23.90;51.30;;;;;;4992570;28;20468;-77
2021/07/21 11:45:13;;;;;;;7.73;7.13;;;23.90;50.40;;;;;;4983147;28;20870;-76
2021/07/21 11:47:42;;;;;;;8.57;7.17;;;23.90;49.70;;;;;;4984586;28;20536;-76
2021/07/21 11:50:12;;;;;;;8.27;7.47;;;23.80;50.10;;;;;;4980438;28;20473;-77
2021/07/21 11:52:39;;;;;;;7.80;7.10;;;24.20;50.20;;;;;;4987195;28;20452;-77
2021/07/21 11:55:08;;;;;;;8.30;6.93;;;24.20;48.70;;;;;;4981343;28;20833;-76
2021/07/21 11:57:35;;;;;;;8.70;7.60;;;24.20;48.50;;;;;;4988471;28;20494;-76
2021/07/21 12:00:02;;;;;;;8.57;7.67;;;24.10;48.60;;;;;;4984762;28;20480;-77
2021/07/21 12:02:30;;;;;;;7.37;6.63;;;24.10;48.90;;;;;;4980061;28;20529;-78
2021/07/21 12:04:58;;;;;;;7.90;7.10;;;24.20;48.90;;;;;;4986302;28;20448;-77
2021/07/21 12:07:34;;;;;;;8.20;7.40;;;24.30;48.40;;;;;;4985317;28;20452;-76
2021/07/21 12:10:10;;;;;;;8.43;7.67;;;24.30;48.10;;;;;;4988732;28;20448;-75
2021/07/21 12:12:37;;;;;;;8.27;7.47;;;24.10;48.30;;;;;;4983029;28;20955;-78
2021/07/21 12:15:05;;;;;;;8.17;7.47;;;24.20;48.10;;;;;;4988418;28;20472;-76
2021/07/21 12:17:32;;;;;;;12.00;6.90;;;24.30;48.10;;;;;;4983267;28;21209;-76
2021/07/21 12:20:01;;;;;;;7.43;6.83;;;24.30;48.00;;;;;;4984760;28;21248;-77
2021/07/21 12:22:32;;;;;;;13.13;7.80;;;24.30;48.00;;;;;;4992771;28;20436;-76
2021/07/21 12:25:01;;;;;;;8.03;7.30;;;24.30;48.00;;;;;;4987021;28;20436;-78
2021/07/21 12:27:31;;;;;;;7.23;6.53;;;24.00;47.40;;;;;;4993333;28;20790;-75
2021/07/21 12:29:59;;;;;;;7.60;6.23;;;24.20;48.30;;;;;;4989906;28;20457;-74
2021/07/21 12:32:26;;;;;;;10.40;6.60;;;24.30;47.30;;;;;;4988942;28;20484;-76
2021/07/21 12:34:56;;;;;;;7.40;6.80;;;24.40;47.80;;;;;;4990402;28;20524;-76
2021/07/21 12:37:27;;;;;;;9.17;7.60;;;24.40;47.70;;;;;;4991887;28;20452;-75
2021/07/21 12:39:57;;;;;;;8.23;7.20;;;24.40;47.90;;;;;;4991680;28;20457;-77
2021/07/21 12:42:25;;;;;;;8.90;7.30;;;24.60;47.40;;;;;;4991832;28;20985;-77
2021/07/21 12:44:55;;;;;;;7.07;6.47;;;24.60;47.30;;;;;;4988148;28;20620;-76
2021/07/21 12:47:27;;;;;;;8.83;8.03;;;24.70;47.70;;;;;;4987272;28;20606;-76